createdAt,value
2018-05-31T00:00:55.165Z,0
2018-05-31T00:01:56.783Z,0
2018-05-31T00:02:58.402Z,0
2018-05-31T00:04:00.017Z,0
2018-05-31T00:05:01.632Z,0
2018-05-31T00:06:03.250Z,0
2018-05-31T00:07:04.867Z,0
2018-05-31T00:08:06.491Z,0
2018-05-31T00:09:08.102Z,0
2018-05-31T00:10:09.723Z,0
2018-05-31T00:11:11.341Z,0
2018-05-31T00:12:12.955Z,0
2018-05-31T00:13:14.576Z,0
2018-05-31T00:14:16.191Z,0
2018-05-31T00:15:17.808Z,0
2018-05-31T00:16:19.428Z,0
2018-05-31T00:17:21.042Z,0
2018-05-31T00:18:22.662Z,0
2018-05-31T00:19:24.277Z,0
2018-05-31T00:20:25.897Z,0
2018-05-31T00:21:27.519Z,0
2018-05-31T00:22:29.135Z,0
2018-05-31T00:23:30.753Z,0
2018-05-31T00:24:32.371Z,0
2018-05-31T00:25:33.987Z,0
2018-05-31T00:26:35.607Z,0
2018-05-31T00:27:37.226Z,0
2018-05-31T00:28:38.846Z,0
2018-05-31T00:29:40.468Z,0
2018-05-31T00:30:42.084Z,0
2018-05-31T00:31:43.709Z,0
2018-05-31T00:32:45.324Z,0
2018-05-31T00:33:46.943Z,0
2018-05-31T00:34:48.561Z,0
2018-05-31T00:35:50.183Z,0
2018-05-31T00:36:51.801Z,0
2018-05-31T00:37:53.424Z,0
2018-05-31T00:38:55.037Z,0
2018-05-31T00:39:56.657Z,0
2018-05-31T00:40:58.271Z,0
2018-05-31T00:41:59.886Z,0
2018-05-31T00:43:01.517Z,0
2018-05-31T00:44:03.127Z,0
2018-05-31T00:45:04.751Z,0
2018-05-31T00:46:06.374Z,0
2018-05-31T00:47:07.982Z,0
2018-05-31T00:48:09.603Z,0
2018-05-31T00:49:11.223Z,0
2018-05-31T00:50:12.840Z,0
2018-05-31T00:51:14.464Z,0
2018-05-31T00:52:16.076Z,0
2018-05-31T00:53:17.696Z,0
2018-05-31T00:54:19.316Z,0
2018-05-31T00:55:20.937Z,0
2018-05-31T00:56:22.552Z,0
2018-05-31T00:57:24.174Z,0
2018-05-31T00:58:25.793Z,0
2018-05-31T00:59:27.411Z,0
2018-05-31T01:00:29.029Z,0
2018-05-31T01:01:30.642Z,0
2018-05-31T01:02:32.267Z,0
2018-05-31T01:03:33.880Z,0
2018-05-31T01:04:35.502Z,0
2018-05-31T01:05:37.121Z,0
2018-05-31T01:06:38.736Z,0
2018-05-31T01:07:40.358Z,0
2018-05-31T01:08:41.972Z,0
2018-05-31T01:09:43.589Z,0
2018-05-31T01:10:45.209Z,0
2018-05-31T01:11:46.831Z,0
2018-05-31T01:12:48.447Z,0
2018-05-31T01:13:50.070Z,0
2018-05-31T01:14:51.727Z,0
2018-05-31T01:15:53.300Z,0
2018-05-31T01:16:54.922Z,0
2018-05-31T01:17:56.538Z,0
2018-05-31T01:18:58.163Z,0
2018-05-31T01:19:59.778Z,0
2018-05-31T01:21:01.391Z,0
2018-05-31T01:22:03.013Z,0
2018-05-31T01:23:04.627Z,0
2018-05-31T01:24:06.251Z,0
2018-05-31T01:25:07.871Z,0
2018-05-31T01:26:09.487Z,0
2018-05-31T01:27:11.110Z,0
2018-05-31T01:28:12.726Z,0
2018-05-31T01:29:14.343Z,0
2018-05-31T01:30:15.963Z,0
2018-05-31T01:31:17.577Z,0
2018-05-31T01:32:19.201Z,0
2018-05-31T01:33:20.822Z,0
2018-05-31T01:34:22.437Z,0
2018-05-31T01:35:24.065Z,0
2018-05-31T01:36:25.675Z,0
2018-05-31T01:37:27.294Z,0
2018-05-31T01:38:28.913Z,0
2018-05-31T01:39:30.530Z,0
2018-05-31T01:40:32.147Z,0
2018-05-31T01:41:33.771Z,0
2018-05-31T01:42:35.384Z,0
2018-05-31T01:43:37.007Z,0
2018-05-31T01:44:38.620Z,0
2018-05-31T01:45:40.244Z,0
2018-05-31T01:46:41.861Z,0
2018-05-31T01:47:43.484Z,0
2018-05-31T01:48:45.060Z,0
2018-05-31T01:49:46.672Z,0
2018-05-31T01:50:48.295Z,0
2018-05-31T01:51:49.912Z,0
2018-05-31T01:52:51.535Z,0
2018-05-31T01:53:53.152Z,0
2018-05-31T01:54:54.777Z,0
2018-05-31T01:55:56.393Z,0
2018-05-31T01:56:58.015Z,0
2018-05-31T01:57:59.626Z,0
2018-05-31T01:59:01.251Z,0
2018-05-31T02:00:02.863Z,0
2018-05-31T02:01:04.487Z,0
2018-05-31T02:02:06.103Z,0
2018-05-31T02:03:07.728Z,0
2018-05-31T02:04:09.338Z,0
2018-05-31T02:05:10.960Z,0
2018-05-31T02:06:12.577Z,0
2018-05-31T02:07:14.192Z,0
2018-05-31T02:08:15.811Z,0
2018-05-31T02:09:17.434Z,0
2018-05-31T02:10:19.048Z,0
2018-05-31T02:11:20.670Z,0
2018-05-31T02:12:22.289Z,0
2018-05-31T02:13:23.900Z,0
2018-05-31T02:14:25.544Z,0
2018-05-31T02:15:27.142Z,0
2018-05-31T02:16:28.762Z,0
2018-05-31T02:17:30.378Z,0
2018-05-31T02:18:31.994Z,0
2018-05-31T02:19:33.617Z,0
2018-05-31T02:20:35.237Z,0
2018-05-31T02:21:36.848Z,0
2018-05-31T02:22:38.463Z,0
2018-05-31T02:23:40.096Z,0
2018-05-31T02:24:41.707Z,0
2018-05-31T02:25:43.324Z,0
2018-05-31T02:26:44.941Z,0
2018-05-31T02:27:46.560Z,0
2018-05-31T02:28:48.181Z,0
2018-05-31T02:29:49.798Z,0
2018-05-31T02:30:51.411Z,0
2018-05-31T02:31:53.035Z,0
2018-05-31T02:32:54.652Z,0
2018-05-31T02:33:56.263Z,0
2018-05-31T02:34:57.878Z,0
2018-05-31T02:35:59.498Z,0
2018-05-31T02:37:01.121Z,0
2018-05-31T02:38:02.736Z,0
2018-05-31T02:39:04.356Z,0
2018-05-31T02:40:05.973Z,0
2018-05-31T02:41:07.591Z,0
2018-05-31T02:42:09.205Z,0
2018-05-31T02:43:10.823Z,0
2018-05-31T02:44:12.446Z,0
2018-05-31T02:45:14.058Z,0
2018-05-31T02:46:15.681Z,0
2018-05-31T02:47:17.297Z,0
2018-05-31T02:48:18.917Z,0
2018-05-31T02:49:20.531Z,0
2018-05-31T02:50:22.162Z,0
2018-05-31T02:51:23.767Z,0
2018-05-31T02:52:25.390Z,0
2018-05-31T02:53:27.007Z,0
2018-05-31T02:54:28.627Z,0
2018-05-31T02:55:30.240Z,0
2018-05-31T02:56:31.862Z,0
2018-05-31T02:57:33.476Z,0
2018-05-31T02:58:35.100Z,0
2018-05-31T02:59:36.720Z,0
2018-05-31T03:00:38.341Z,0
2018-05-31T03:01:39.956Z,0
2018-05-31T03:02:41.579Z,0
2018-05-31T03:03:43.192Z,0
2018-05-31T03:04:44.817Z,0
2018-05-31T03:05:46.436Z,5
2018-05-31T03:06:48.055Z,5
2018-05-31T03:07:49.734Z,5
2018-05-31T03:08:51.293Z,5
2018-05-31T03:09:52.914Z,5
2018-05-31T03:10:54.534Z,5
2018-05-31T03:11:56.157Z,11
2018-05-31T03:12:57.777Z,11
2018-05-31T03:13:59.405Z,11
2018-05-31T03:15:01.025Z,11
2018-05-31T03:16:02.641Z,11
2018-05-31T03:17:04.268Z,16
2018-05-31T03:18:05.887Z,16
2018-05-31T03:19:07.509Z,16
2018-05-31T03:20:09.134Z,16
2018-05-31T03:21:10.759Z,16
2018-05-31T03:22:12.383Z,22
2018-05-31T03:23:13.997Z,22
2018-05-31T03:24:15.616Z,22
2018-05-31T03:25:17.237Z,28
2018-05-31T03:26:18.861Z,28
2018-05-31T03:27:20.482Z,28
2018-05-31T03:28:22.107Z,28
2018-05-31T03:29:23.726Z,28
2018-05-31T03:30:25.349Z,33
2018-05-31T03:31:26.971Z,33
2018-05-31T03:32:28.629Z,33
2018-05-31T03:33:30.218Z,39
2018-05-31T03:34:31.839Z,39
2018-05-31T03:35:33.459Z,45
2018-05-31T03:36:35.076Z,45
2018-05-31T03:37:36.703Z,50
2018-05-31T03:38:38.320Z,50
2018-05-31T03:39:39.939Z,50
2018-05-31T03:40:41.562Z,56
2018-05-31T03:41:43.181Z,56
2018-05-31T03:42:44.801Z,56
2018-05-31T03:43:46.427Z,61
2018-05-31T03:44:48.049Z,61
2018-05-31T03:45:49.666Z,61
2018-05-31T03:46:51.284Z,67
2018-05-31T03:47:52.909Z,67
2018-05-31T03:48:54.526Z,73
2018-05-31T03:49:56.150Z,78
2018-05-31T03:50:57.770Z,78
2018-05-31T03:51:59.395Z,84
2018-05-31T03:53:01.017Z,90
2018-05-31T03:54:02.639Z,90
2018-05-31T03:55:04.257Z,95
2018-05-31T03:56:05.885Z,101
2018-05-31T03:57:07.505Z,101
2018-05-31T03:58:09.135Z,106
2018-05-31T03:59:10.761Z,106
2018-05-31T04:00:12.379Z,106
2018-05-31T04:01:13.997Z,112
2018-05-31T04:02:15.626Z,112
2018-05-31T04:03:17.254Z,118
2018-05-31T04:04:18.873Z,118
2018-05-31T04:05:20.495Z,118
2018-05-31T04:06:22.122Z,118
2018-05-31T04:07:23.747Z,118
2018-05-31T04:08:25.369Z,123
2018-05-31T04:09:26.993Z,123
2018-05-31T04:10:28.615Z,123
2018-05-31T04:11:30.242Z,118
2018-05-31T04:12:31.859Z,118
2018-05-31T04:13:33.490Z,123
2018-05-31T04:14:35.106Z,118
2018-05-31T04:15:36.727Z,118
2018-05-31T04:16:38.354Z,118
2018-05-31T04:17:39.979Z,118
2018-05-31T04:18:41.600Z,118
2018-05-31T04:19:43.221Z,118
2018-05-31T04:20:44.848Z,118
2018-05-31T04:21:46.474Z,118
2018-05-31T04:22:48.097Z,123
2018-05-31T04:23:49.719Z,123
2018-05-31T04:24:51.346Z,123
2018-05-31T04:25:52.969Z,123
2018-05-31T04:26:54.592Z,129
2018-05-31T04:27:56.215Z,129
2018-05-31T04:28:57.838Z,135
2018-05-31T04:29:59.460Z,135
2018-05-31T04:31:01.078Z,140
2018-05-31T04:32:02.704Z,140
2018-05-31T04:33:04.327Z,146
2018-05-31T04:34:05.955Z,146
2018-05-31T04:35:07.571Z,151
2018-05-31T04:36:09.201Z,151
2018-05-31T04:37:10.818Z,151
2018-05-31T04:38:12.444Z,151
2018-05-31T04:39:14.071Z,157
2018-05-31T04:40:15.697Z,157
2018-05-31T04:41:17.330Z,157
2018-05-31T04:42:18.942Z,163
2018-05-31T04:43:20.566Z,168
2018-05-31T04:44:22.192Z,168
2018-05-31T04:45:23.815Z,174
2018-05-31T04:46:25.434Z,180
2018-05-31T04:47:27.065Z,180
2018-05-31T04:48:28.688Z,185
2018-05-31T04:49:30.307Z,185
2018-05-31T04:50:31.927Z,185
2018-05-31T04:51:33.552Z,191
2018-05-31T04:52:35.172Z,191
2018-05-31T04:53:36.822Z,196
2018-05-31T04:54:38.427Z,196
2018-05-31T04:55:40.054Z,196
2018-05-31T04:56:41.678Z,202
2018-05-31T04:57:43.297Z,208
2018-05-31T04:58:44.922Z,213
2018-05-31T04:59:46.548Z,225
2018-05-31T05:00:48.168Z,225
2018-05-31T05:01:49.793Z,236
2018-05-31T05:02:51.420Z,241
2018-05-31T05:03:53.037Z,247
2018-05-31T05:04:54.664Z,230
2018-05-31T05:05:56.286Z,236
2018-05-31T05:06:57.921Z,247
2018-05-31T05:07:59.542Z,253
2018-05-31T05:09:01.171Z,258
2018-05-31T05:10:02.799Z,270
2018-05-31T05:11:04.420Z,281
2018-05-31T05:12:06.040Z,292
2018-05-31T05:13:07.659Z,298
2018-05-31T05:14:09.283Z,315
2018-05-31T05:15:10.913Z,331
2018-05-31T05:16:12.549Z,354
2018-05-31T05:17:14.168Z,365
2018-05-31T05:18:15.800Z,382
2018-05-31T05:19:17.425Z,399
2018-05-31T05:20:19.116Z,410
2018-05-31T05:21:20.739Z,421
2018-05-31T05:22:22.365Z,438
2018-05-31T05:23:23.992Z,438
2018-05-31T05:24:25.613Z,444
2018-05-31T05:25:27.233Z,438
2018-05-31T05:26:28.874Z,438
2018-05-31T05:27:30.490Z,444
2018-05-31T05:28:32.107Z,450
2018-05-31T05:29:33.734Z,455
2018-05-31T05:30:35.501Z,461
2018-05-31T05:31:39.466Z,455
2018-05-31T05:32:43.996Z,466
2018-05-31T05:33:45.575Z,466
2018-05-31T05:34:47.807Z,461
2018-05-31T05:35:49.477Z,455
2018-05-31T05:36:51.147Z,433
2018-05-31T05:37:53.038Z,444
2018-05-31T05:38:54.630Z,450
2018-05-31T05:39:56.298Z,438
2018-05-31T05:40:57.888Z,421
2018-05-31T05:41:59.533Z,421
2018-05-31T05:43:01.150Z,427
2018-05-31T05:44:02.773Z,427
2018-05-31T05:45:04.404Z,427
2018-05-31T05:46:06.054Z,438
2018-05-31T05:47:07.677Z,433
2018-05-31T05:48:09.298Z,427
2018-05-31T05:49:11.039Z,427
2018-05-31T05:50:12.771Z,438
2018-05-31T05:51:16.930Z,455
2018-05-31T05:52:22.285Z,478
2018-05-31T05:53:27.641Z,495
2018-05-31T05:54:33.019Z,489
2018-05-31T05:55:37.185Z,466
2018-05-31T05:56:41.306Z,489
2018-05-31T05:57:45.500Z,489
2018-05-31T05:58:49.768Z,495
2018-05-31T05:59:53.973Z,506
2018-05-31T06:00:58.164Z,489
2018-05-31T06:02:02.375Z,478
2018-05-31T06:03:07.346Z,489
2018-05-31T06:04:12.200Z,495
2018-05-31T06:05:16.693Z,523
2018-05-31T06:06:21.533Z,568
2018-05-31T06:07:23.425Z,838
2018-05-31T06:08:28.225Z,1338
2018-05-31T06:09:32.336Z,1288
2018-05-31T06:10:37.172Z,1141
2018-05-31T06:11:41.326Z,1215
2018-05-31T06:12:45.472Z,1468
2018-05-31T06:13:49.831Z,1535
2018-05-31T06:14:54.035Z,1603
2018-05-31T06:15:58.889Z,1653
2018-05-31T06:17:03.607Z,1507
2018-05-31T06:18:08.408Z,1434
2018-05-31T06:19:12.638Z,1440
2018-05-31T06:20:16.723Z,1580
2018-05-31T06:21:21.385Z,1625
2018-05-31T06:22:25.025Z,1760
2018-05-31T06:23:29.526Z,1833
2018-05-31T06:24:34.621Z,1901
2018-05-31T06:25:39.344Z,1850
2018-05-31T06:26:43.976Z,1788
2018-05-31T06:27:48.759Z,1850
2018-05-31T06:28:51.019Z,1850
2018-05-31T06:29:55.215Z,2025
2018-05-31T06:31:01.103Z,1968
2018-05-31T06:32:08.649Z,2086
2018-05-31T06:33:12.440Z,2109
2018-05-31T06:34:17.706Z,2227
2018-05-31T06:35:26.183Z,2283
2018-05-31T06:36:32.315Z,2143
2018-05-31T06:37:40.584Z,1507
2018-05-31T06:38:42.448Z,1237
2018-05-31T06:39:48.306Z,866
2018-05-31T06:40:50.876Z,753
2018-05-31T06:41:56.118Z,770
2018-05-31T06:42:58.706Z,748
2018-05-31T06:44:06.291Z,832
2018-05-31T06:45:11.036Z,731
2018-05-31T06:46:13.746Z,776
2018-05-31T06:47:16.804Z,804
2018-05-31T06:48:19.766Z,877
2018-05-31T06:49:22.664Z,1085
2018-05-31T06:50:25.742Z,2446
2018-05-31T06:51:29.689Z,2154
2018-05-31T06:52:34.136Z,1687
2018-05-31T06:53:42.447Z,2041
2018-05-31T06:54:46.624Z,2688
2018-05-31T06:55:52.003Z,2086
2018-05-31T06:56:58.215Z,2553
2018-05-31T06:58:06.313Z,2126
2018-05-31T06:59:08.702Z,2784
2018-05-31T07:00:17.014Z,2981
2018-05-31T07:01:19.605Z,2986
2018-05-31T07:02:22.117Z,2660
2018-05-31T07:03:28.656Z,2778
2018-05-31T07:04:36.995Z,2317
2018-05-31T07:05:41.900Z,3054
2018-05-31T07:06:50.733Z,2936
2018-05-31T07:07:55.089Z,2964
2018-05-31T07:09:01.802Z,3211
2018-05-31T07:10:10.514Z,2058
2018-05-31T07:11:19.773Z,1698
2018-05-31T07:12:25.924Z,1535
2018-05-31T07:13:31.417Z,1389
2018-05-31T07:14:39.481Z,1389
2018-05-31T07:15:44.237Z,2070
2018-05-31T07:16:47.608Z,2036
2018-05-31T07:17:49.617Z,2278
2018-05-31T07:18:51.523Z,2064
2018-05-31T07:19:53.520Z,2323
2018-05-31T07:20:55.537Z,2323
2018-05-31T07:21:57.337Z,2379
2018-05-31T07:22:59.176Z,2396
2018-05-31T07:24:01.046Z,2458
2018-05-31T07:25:02.671Z,2463
2018-05-31T07:26:04.300Z,2407
2018-05-31T07:27:05.927Z,1625
2018-05-31T07:28:07.568Z,1940
2018-05-31T07:29:09.200Z,2081
2018-05-31T07:30:10.833Z,2323
2018-05-31T07:31:12.470Z,1951
2018-05-31T07:32:14.106Z,2013
2018-05-31T07:33:15.741Z,2491
2018-05-31T07:34:17.372Z,2205
2018-05-31T07:35:19.007Z,1687
2018-05-31T07:36:20.717Z,1845
2018-05-31T07:37:22.295Z,2019
2018-05-31T07:38:23.925Z,1670
2018-05-31T07:39:25.698Z,1513
2018-05-31T07:40:27.320Z,1395
2018-05-31T07:41:29.078Z,1350
2018-05-31T07:42:30.707Z,1327
2018-05-31T07:43:32.346Z,1316
2018-05-31T07:44:33.981Z,1276
2018-05-31T07:45:35.633Z,1265
2018-05-31T07:46:37.268Z,1276
2018-05-31T07:47:38.894Z,1276
2018-05-31T07:48:40.538Z,1254
2018-05-31T07:49:42.169Z,1248
2018-05-31T07:50:43.806Z,1361
2018-05-31T07:51:45.438Z,1423
2018-05-31T07:52:47.078Z,1423
2018-05-31T07:53:48.706Z,1563
2018-05-31T07:54:50.343Z,1400
2018-05-31T07:55:51.972Z,1530
2018-05-31T07:56:53.608Z,1462
2018-05-31T07:57:55.241Z,1479
2018-05-31T07:58:56.877Z,1575
2018-05-31T07:59:58.503Z,1681
2018-05-31T08:01:00.148Z,1766
2018-05-31T08:02:01.778Z,1800
2018-05-31T08:03:03.412Z,1923
2018-05-31T08:04:05.043Z,1912
2018-05-31T08:05:06.675Z,1957
2018-05-31T08:06:08.307Z,1991
2018-05-31T08:07:09.944Z,2143
2018-05-31T08:08:11.571Z,2081
2018-05-31T08:09:13.209Z,2131
2018-05-31T08:10:14.834Z,2401
2018-05-31T08:11:16.503Z,2733
2018-05-31T08:12:18.100Z,3195
2018-05-31T08:13:19.741Z,2621
2018-05-31T08:14:21.370Z,2182
2018-05-31T08:15:23.006Z,1771
2018-05-31T08:16:24.636Z,1698
2018-05-31T08:17:26.352Z,1726
2018-05-31T08:18:27.990Z,1591
2018-05-31T08:19:29.621Z,1580
2018-05-31T08:20:31.255Z,1608
2018-05-31T08:21:32.885Z,1631
2018-05-31T08:22:34.522Z,1665
2018-05-31T08:23:36.154Z,1715
2018-05-31T08:24:37.785Z,1749
2018-05-31T08:25:39.422Z,1783
2018-05-31T08:26:41.253Z,1833
2018-05-31T08:27:43.056Z,1878
2018-05-31T08:28:44.676Z,2058
2018-05-31T08:29:46.315Z,2148
2018-05-31T08:30:47.946Z,2368
2018-05-31T08:31:49.577Z,2829
2018-05-31T08:32:51.211Z,3223
2018-05-31T08:33:52.849Z,4680
2018-05-31T08:34:54.481Z,4061
2018-05-31T08:35:56.114Z,4201
2018-05-31T08:36:57.745Z,4072
2018-05-31T08:37:59.377Z,4224
2018-05-31T08:39:03.700Z,2621
2018-05-31T08:40:05.359Z,2019
2018-05-31T08:41:06.998Z,1743
2018-05-31T08:42:08.638Z,1625
2018-05-31T08:43:10.272Z,1591
2018-05-31T08:44:11.912Z,1586
2018-05-31T08:45:13.540Z,1603
2018-05-31T08:46:15.175Z,1648
2018-05-31T08:47:16.813Z,1636
2018-05-31T08:48:18.454Z,1704
2018-05-31T08:49:20.288Z,1974
2018-05-31T08:50:21.965Z,2317
2018-05-31T08:51:23.569Z,2435
2018-05-31T08:52:25.200Z,2778
2018-05-31T08:53:26.837Z,3358
2018-05-31T08:54:28.472Z,3054
2018-05-31T08:55:30.116Z,2593
2018-05-31T08:56:31.746Z,2441
2018-05-31T08:57:33.385Z,2407
2018-05-31T08:58:35.014Z,2390
2018-05-31T08:59:36.654Z,2171
2018-05-31T09:00:38.283Z,2115
2018-05-31T09:01:40.118Z,1974
2018-05-31T09:02:41.730Z,1985
2018-05-31T09:03:43.373Z,2064
2018-05-31T09:04:45.002Z,1850
2018-05-31T09:05:46.648Z,1918
2018-05-31T09:06:48.270Z,2446
2018-05-31T09:07:49.904Z,2385
2018-05-31T09:08:51.537Z,2171
2018-05-31T09:09:53.172Z,2126
2018-05-31T09:10:54.810Z,2205
2018-05-31T09:11:56.443Z,2289
2018-05-31T09:12:58.079Z,2283
2018-05-31T09:13:59.713Z,2160
2018-05-31T09:15:01.343Z,2120
2018-05-31T09:16:02.979Z,2154
2018-05-31T09:17:04.617Z,2171
2018-05-31T09:18:06.256Z,2160
2018-05-31T09:19:07.887Z,2120
2018-05-31T09:20:09.521Z,2160
2018-05-31T09:21:11.157Z,2261
2018-05-31T09:22:12.792Z,2373
2018-05-31T09:23:14.419Z,2823
2018-05-31T09:24:16.060Z,3285
2018-05-31T09:25:17.795Z,3003
2018-05-31T09:26:19.408Z,2790
2018-05-31T09:27:21.043Z,2722
2018-05-31T09:28:22.680Z,2716
2018-05-31T09:29:24.309Z,2925
2018-05-31T09:30:25.953Z,2784
2018-05-31T09:31:27.580Z,3296
2018-05-31T09:32:29.218Z,3526
2018-05-31T09:33:30.849Z,3628
2018-05-31T09:34:32.483Z,3234
2018-05-31T09:35:34.117Z,2801
2018-05-31T09:36:35.753Z,2795
2018-05-31T09:37:37.386Z,2801
2018-05-31T09:38:39.027Z,2840
2018-05-31T09:39:40.661Z,2941
2018-05-31T09:40:42.302Z,3690
2018-05-31T09:41:43.943Z,5169
2018-05-31T09:42:45.573Z,6615
2018-05-31T09:43:47.211Z,7020
2018-05-31T09:44:48.849Z,7492
2018-05-31T09:45:50.482Z,4781
2018-05-31T09:46:52.118Z,3369
2018-05-31T09:47:53.761Z,2559
2018-05-31T09:48:55.395Z,2345
2018-05-31T09:49:57.035Z,2266
2018-05-31T09:50:58.667Z,2182
2018-05-31T09:52:00.312Z,2143
2018-05-31T09:53:01.945Z,2058
2018-05-31T09:54:03.589Z,2053
2018-05-31T09:55:05.232Z,2103
2018-05-31T09:56:06.860Z,2092
2018-05-31T09:57:08.493Z,2126
2018-05-31T09:58:10.135Z,2137
2018-05-31T09:59:11.772Z,2250
2018-05-31T10:00:13.416Z,2171
2018-05-31T10:01:15.049Z,2272
2018-05-31T10:02:16.688Z,2272
2018-05-31T10:03:18.329Z,2171
2018-05-31T10:04:19.960Z,2148
2018-05-31T10:05:21.601Z,2278
2018-05-31T10:06:23.233Z,2351
2018-05-31T10:07:25.606Z,4005
2018-05-31T10:08:27.237Z,5428
2018-05-31T10:09:28.880Z,6682
2018-05-31T10:10:30.510Z,7098
2018-05-31T10:11:32.146Z,7110
2018-05-31T10:12:33.781Z,6789
2018-05-31T10:13:35.422Z,6643
2018-05-31T10:14:37.063Z,6721
2018-05-31T10:15:38.700Z,6716
2018-05-31T10:16:40.339Z,6564
2018-05-31T10:17:41.983Z,6575
2018-05-31T10:18:43.618Z,6575
2018-05-31T10:19:45.262Z,6513
2018-05-31T10:20:46.940Z,6266
2018-05-31T10:21:48.535Z,6215
2018-05-31T10:22:50.185Z,6378
2018-05-31T10:23:51.826Z,6564
2018-05-31T10:24:53.466Z,5101
2018-05-31T10:25:55.097Z,6288
2018-05-31T10:26:56.740Z,6468
2018-05-31T10:27:58.388Z,6615
2018-05-31T10:29:00.030Z,5506
2018-05-31T10:30:01.668Z,6114
2018-05-31T10:31:03.315Z,6339
2018-05-31T10:32:04.958Z,6451
2018-05-31T10:33:06.600Z,6435
2018-05-31T10:34:08.246Z,6457
2018-05-31T10:35:09.890Z,6204
2018-05-31T10:36:11.545Z,6058
2018-05-31T10:37:13.174Z,6350
2018-05-31T10:38:14.825Z,6541
2018-05-31T10:39:16.460Z,6423
2018-05-31T10:40:18.115Z,6271
2018-05-31T10:41:19.747Z,6153
2018-05-31T10:42:21.400Z,6210
2018-05-31T10:43:23.040Z,6204
2018-05-31T10:44:24.683Z,6041
2018-05-31T10:45:26.332Z,5906
2018-05-31T10:46:27.977Z,6052
2018-05-31T10:47:29.620Z,6097
2018-05-31T10:48:31.261Z,5979
2018-05-31T10:49:32.902Z,5782
2018-05-31T10:50:34.547Z,5861
2018-05-31T10:51:36.196Z,5866
2018-05-31T10:52:37.840Z,6041
2018-05-31T10:53:39.494Z,6086
2018-05-31T10:54:41.128Z,6283
2018-05-31T10:55:42.777Z,6423
2018-05-31T10:56:44.419Z,6238
2018-05-31T10:57:46.067Z,5962
2018-05-31T10:58:47.711Z,6069
2018-05-31T10:59:49.363Z,6069
2018-05-31T11:00:51.000Z,6558
2018-05-31T11:01:52.650Z,6316
2018-05-31T11:02:54.295Z,6170
2018-05-31T11:03:55.939Z,6153
2018-05-31T11:04:57.589Z,6198
2018-05-31T11:05:59.224Z,6418
2018-05-31T11:07:00.875Z,6474
2018-05-31T11:08:02.513Z,6300
2018-05-31T11:09:04.157Z,6159
2018-05-31T11:10:05.806Z,6255
2018-05-31T11:11:07.455Z,6395
2018-05-31T11:12:09.096Z,6418
2018-05-31T11:13:10.742Z,6406
2018-05-31T11:14:12.392Z,6406
2018-05-31T11:15:14.035Z,6508
2018-05-31T11:16:15.678Z,6345
2018-05-31T11:17:17.325Z,6294
2018-05-31T11:18:18.977Z,6423
2018-05-31T11:19:20.619Z,6412
2018-05-31T11:20:22.272Z,6215
2018-05-31T11:21:23.904Z,6097
2018-05-31T11:22:25.557Z,6097
2018-05-31T11:23:27.201Z,6418
2018-05-31T11:24:28.847Z,6485
2018-05-31T11:25:30.488Z,6401
2018-05-31T11:26:32.137Z,6232
2018-05-31T11:27:33.782Z,6159
2018-05-31T11:28:35.428Z,6390
2018-05-31T11:29:37.074Z,6305
2018-05-31T11:30:38.719Z,6052
2018-05-31T11:31:40.367Z,5653
2018-05-31T11:32:42.009Z,5850
2018-05-31T11:33:43.653Z,6502
2018-05-31T11:34:45.309Z,6795
2018-05-31T11:35:46.950Z,6440
2018-05-31T11:36:48.597Z,6249
2018-05-31T11:37:50.241Z,6412
2018-05-31T11:38:51.887Z,6688
2018-05-31T11:39:53.531Z,7014
2018-05-31T11:40:55.178Z,6913
2018-05-31T11:41:56.829Z,6592
2018-05-31T11:42:58.483Z,6570
2018-05-31T11:44:00.123Z,6811
2018-05-31T11:45:01.772Z,6811
2018-05-31T11:46:03.413Z,6423
2018-05-31T11:47:05.062Z,6114
2018-05-31T11:48:06.705Z,5737
2018-05-31T11:49:08.357Z,4843
2018-05-31T11:50:10.005Z,5017
2018-05-31T11:51:11.645Z,4820
2018-05-31T11:52:13.296Z,5265
2018-05-31T11:53:14.934Z,5113
2018-05-31T11:54:16.582Z,5073
2018-05-31T11:55:18.229Z,5236
2018-05-31T11:56:19.881Z,5017
2018-05-31T11:57:21.520Z,4871
2018-05-31T11:58:23.161Z,4297
2018-05-31T11:59:24.818Z,3318
2018-05-31T12:00:26.478Z,3161
2018-05-31T12:01:28.094Z,2480
2018-05-31T12:02:29.737Z,2643
2018-05-31T12:03:31.389Z,2283
2018-05-31T12:04:33.027Z,2154
2018-05-31T12:05:34.671Z,2154
2018-05-31T12:06:36.312Z,2064
2018-05-31T12:07:37.953Z,1968
2018-05-31T12:08:39.601Z,1895
2018-05-31T12:09:41.232Z,1906
2018-05-31T12:10:42.894Z,1710
2018-05-31T12:11:44.515Z,1558
2018-05-31T12:12:46.159Z,1479
2018-05-31T12:13:47.793Z,1389
2018-05-31T12:14:49.430Z,1321
2018-05-31T12:15:51.072Z,1254
2018-05-31T12:16:52.712Z,1209
2018-05-31T12:17:54.349Z,1170
2018-05-31T12:18:55.984Z,1136
2018-05-31T12:19:57.624Z,1108
2018-05-31T12:20:59.261Z,1080
2018-05-31T12:22:00.897Z,1051
2018-05-31T12:23:02.544Z,1029
2018-05-31T12:24:04.169Z,990
2018-05-31T12:25:05.807Z,961
2018-05-31T12:26:07.447Z,939
2018-05-31T12:27:09.080Z,905
2018-05-31T12:28:10.710Z,877
2018-05-31T12:29:12.341Z,849
2018-05-31T12:30:13.981Z,821
2018-05-31T12:31:15.608Z,798
2018-05-31T12:32:17.299Z,776
2018-05-31T12:33:18.891Z,770
2018-05-31T12:34:20.518Z,770
2018-05-31T12:35:22.174Z,736
2018-05-31T12:36:23.809Z,714
2018-05-31T12:37:25.443Z,697
2018-05-31T12:38:27.116Z,680
2018-05-31T12:39:28.748Z,675
2018-05-31T12:40:30.383Z,669
2018-05-31T12:41:32.017Z,663
2018-05-31T12:42:33.643Z,658
2018-05-31T12:43:35.273Z,646
2018-05-31T12:44:36.907Z,641
2018-05-31T12:45:38.541Z,641
2018-05-31T12:46:40.170Z,641
2018-05-31T12:47:41.801Z,641
2018-05-31T12:48:43.432Z,635
2018-05-31T12:49:45.061Z,635
2018-05-31T12:50:46.691Z,641
2018-05-31T12:51:48.317Z,646
2018-05-31T12:52:49.958Z,652
2018-05-31T12:53:51.582Z,669
2018-05-31T12:54:53.215Z,680
2018-05-31T12:55:54.841Z,703
2018-05-31T12:56:56.470Z,725
2018-05-31T12:57:58.099Z,736
2018-05-31T12:58:59.729Z,759
2018-05-31T13:00:01.355Z,770
2018-05-31T13:01:02.988Z,793
2018-05-31T13:02:04.615Z,815
2018-05-31T13:03:06.247Z,838
2018-05-31T13:04:07.874Z,866
2018-05-31T13:05:09.501Z,883
2018-05-31T13:06:11.128Z,900
2018-05-31T13:07:12.754Z,916
2018-05-31T13:08:14.395Z,928
2018-05-31T13:09:16.021Z,933
2018-05-31T13:10:17.654Z,939
2018-05-31T13:11:19.278Z,945
2018-05-31T13:12:20.911Z,945
2018-05-31T13:13:22.535Z,939
2018-05-31T13:14:24.169Z,933
2018-05-31T13:15:25.799Z,922
2018-05-31T13:16:27.437Z,900
2018-05-31T13:17:29.058Z,877
2018-05-31T13:18:30.691Z,866
2018-05-31T13:19:32.318Z,826
2018-05-31T13:20:33.941Z,781
2018-05-31T13:21:35.571Z,731
2018-05-31T13:22:37.204Z,675
2018-05-31T13:23:38.829Z,624
2018-05-31T13:24:40.512Z,596
2018-05-31T13:25:42.085Z,573
2018-05-31T13:26:43.714Z,568
2018-05-31T13:27:45.335Z,528
2018-05-31T13:28:46.968Z,573
2018-05-31T13:29:48.605Z,590
2018-05-31T13:30:50.235Z,556
2018-05-31T13:31:51.859Z,601
2018-05-31T13:32:53.482Z,568
2018-05-31T13:33:55.113Z,545
2018-05-31T13:34:56.742Z,523
2018-05-31T13:35:58.369Z,506
2018-05-31T13:37:00.181Z,500
2018-05-31T13:38:01.808Z,489
2018-05-31T13:39:03.431Z,483
2018-05-31T13:40:05.061Z,461
2018-05-31T13:41:06.686Z,438
2018-05-31T13:42:08.314Z,433
2018-05-31T13:43:09.971Z,421
2018-05-31T13:44:11.565Z,421
2018-05-31T13:45:13.190Z,427
2018-05-31T13:46:14.825Z,438
2018-05-31T13:47:16.450Z,450
2018-05-31T13:48:18.075Z,455
2018-05-31T13:49:19.698Z,461
2018-05-31T13:50:21.330Z,472
2018-05-31T13:51:22.960Z,483
2018-05-31T13:52:24.585Z,489
2018-05-31T13:53:26.209Z,500
2018-05-31T13:54:27.838Z,489
2018-05-31T13:55:29.467Z,483
2018-05-31T13:56:31.089Z,444
2018-05-31T13:57:32.720Z,410
2018-05-31T13:58:34.343Z,365
2018-05-31T13:59:35.973Z,331
2018-05-31T14:00:37.601Z,309
2018-05-31T14:01:39.224Z,303
2018-05-31T14:02:40.853Z,320
2018-05-31T14:03:42.479Z,354
2018-05-31T14:04:44.111Z,399
2018-05-31T14:05:45.731Z,444
2018-05-31T14:06:47.365Z,483
2018-05-31T14:07:48.987Z,511
2018-05-31T14:08:50.624Z,534
2018-05-31T14:09:52.237Z,551
2018-05-31T14:10:53.866Z,573
2018-05-31T14:11:55.488Z,590
2018-05-31T14:12:57.120Z,607
2018-05-31T14:13:58.746Z,618
2018-05-31T14:15:00.372Z,635
2018-05-31T14:16:01.997Z,658